sensor_id;sensor_type;location;lat;lon;timestamp;pressure;altitude;pressure_sealevel;temperature;humidity
39823;BME280;25499;53.958;10.970;2023-06-14T05:41:28;101949.19;;;16.71;100.00
39823;BME280;25499;53.958;10.970;2023-06-14T05:43:56;101947.34;;;16.81;100.00
39823;BME280;25499;53.958;10.970;2023-06-14T05:46:23;101947.16;;;17.01;100.00
39823;BME280;25499;53.958;10.970;2023-06-14T05:48:51;101940.91;;;17.11;100.00
39823;BME280;25499;53.958;10.970;2023-06-14T05:51:18;101947.81;;;17.23;100.00
39823;BME280;25499;53.958;10.970;2023-06-14T05:53:45;101942.50;;;17.28;100.00
39823;BME280;25499;53.958;10.970;2023-06-14T05:56:12;101939.59;;;17.46;100.00
39823;BME280;25499;53.958;10.970;2023-06-14T05:58:40;101940.38;;;17.55;99.24
39823;BME280;25499;53.958;10.970;2023-06-14T06:01:07;101931.47;;;17.65;96.09
39823;BME280;25499;53.958;10.970;2023-06-14T06:03:34;101928.72;;;17.76;93.45
39823;BME280;25499;53.958;10.970;2023-06-14T06:06:01;101922.22;;;18.00;89.92
39823;BME280;25499;53.958;10.970;2023-06-14T06:08:28;101914.16;;;18.11;86.92
39823;BME280;25499;53.958;10.970;2023-06-14T06:10:56;101909.53;;;18.25;84.44
39823;BME280;25499;53.958;10.970;2023-06-14T06:13:23;101933.09;;;18.34;86.76
39823;BME280;25499;53.958;10.970;2023-06-14T06:15:51;101943.09;;;18.67;88.93
39823;BME280;25499;53.958;10.970;2023-06-14T06:18:19;101930.63;;;18.76;87.81
39823;BME280;25499;53.958;10.970;2023-06-14T06:20:46;101926.94;;;18.87;85.17
39823;BME280;25499;53.958;10.970;2023-06-14T06:23:13;101912.84;;;18.89;82.83
39823;BME280;25499;53.958;10.970;2023-06-14T06:25:42;101928.38;;;19.05;83.71
39823;BME280;25499;53.958;10.970;2023-06-14T06:28:09;101935.84;;;19.26;84.45
39823;BME280;25499;53.958;10.970;2023-06-14T06:30:36;101940.75;;;19.45;83.35
39823;BME280;25499;53.958;10.970;2023-06-14T06:33:05;101942.50;;;19.46;84.28
39823;BME280;25499;53.958;10.970;2023-06-14T06:35:32;101952.78;;;19.58;85.40
39823;BME280;25499;53.958;10.970;2023-06-14T06:37:59;101949.97;;;19.67;85.38
39823;BME280;25499;53.958;10.970;2023-06-14T06:40:26;101935.75;;;19.73;82.42
39823;BME280;25499;53.958;10.970;2023-06-14T06:42:53;101933.56;;;19.92;80.34
39823;BME280;25499;53.958;10.970;2023-06-14T06:45:21;101932.31;;;20.08;79.94
39823;BME280;25499;53.958;10.970;2023-06-14T06:47:48;101927.97;;;20.06;78.61
39823;BME280;25499;53.958;10.970;2023-06-14T06:50:18;101927.66;;;20.20;77.29
39823;BME280;25499;53.958;10.970;2023-06-14T06:52:45;101926.59;;;20.27;76.43
39823;BME280;25499;53.958;10.970;2023-06-14T06:55:12;101930.56;;;20.43;76.26
39823;BME280;25499;53.958;10.970;2023-06-14T06:57:39;101929.91;;;20.35;75.53
39823;BME280;25499;53.958;10.970;2023-06-14T07:00:06;101935.38;;;20.63;75.70
39823;BME280;25499;53.958;10.970;2023-06-14T07:02:34;101933.69;;;20.59;75.12
39823;BME280;25499;53.958;10.970;2023-06-14T07:05:01;101930.75;;;20.72;75.21
39823;BME280;25499;53.958;10.970;2023-06-14T07:07:29;101942.78;;;20.83;75.14
39823;BME280;25499;53.958;10.970;2023-06-14T07:09:56;101931.41;;;20.80;72.88
39823;BME280;25499;53.958;10.970;2023-06-14T07:12:24;101939.81;;;20.96;72.87
39823;BME280;25499;53.958;10.970;2023-06-14T07:14:51;101921.41;;;20.91;71.25
39823;BME280;25499;53.958;10.970;2023-06-14T07:17:17;101924.16;;;20.88;71.42
39823;BME280;25499;53.958;10.970;2023-06-14T07:19:44;101909.50;;;21.06;69.42
39823;BME280;25499;53.958;10.970;2023-06-14T07:22:11;101914.59;;;21.14;69.21
39823;BME280;25499;53.958;10.970;2023-06-14T07:24:39;101927.69;;;21.50;70.65
39823;BME280;25499;53.958;10.970;2023-06-14T07:27:07;101914.72;;;21.70;68.93
39823;BME280;25499;53.958;10.970;2023-06-14T07:29:34;101916.56;;;21.96;68.68
39823;BME280;25499;53.958;10.970;2023-06-14T07:32:00;101929.44;;;21.79;69.60
39823;BME280;25499;53.958;10.970;2023-06-14T07:34:27;101899.91;;;21.63;66.51
39823;BME280;25499;53.958;10.970;2023-06-14T07:36:54;101909.75;;;21.59;66.84
39823;BME280;25499;53.958;10.970;2023-06-14T07:39:21;101923.53;;;21.71;66.47
39823;BME280;25499;53.958;10.970;2023-06-14T07:41:50;101922.19;;;21.86;66.75
39823;BME280;25499;53.958;10.970;2023-06-14T07:44:16;101912.19;;;21.94;65.70
39823;BME280;25499;53.958;10.970;2023-06-14T07:46:44;101894.00;;;22.10;63.94
39823;BME280;25499;53.958;10.970;2023-06-14T07:49:11;101912.13;;;22.24;64.08
39823;BME280;25499;53.958;10.970;2023-06-14T07:51:38;101926.72;;;22.10;65.17
39823;BME280;25499;53.958;10.970;2023-06-14T07:54:05;101889.25;;;22.20;63.21
39823;BME280;25499;53.958;10.970;2023-06-14T07:56:33;101897.09;;;22.23;63.22
39823;BME280;25499;53.958;10.970;2023-06-14T07:59:02;101914.94;;;22.46;64.47
39823;BME280;25499;53.958;10.970;2023-06-14T08:01:29;101895.97;;;22.57;63.03
39823;BME280;25499;53.958;10.970;2023-06-14T08:03:55;101874.75;;;22.57;61.63
39823;BME280;25499;53.958;10.970;2023-06-14T08:06:22;101883.91;;;22.73;61.42
39823;BME280;25499;53.958;10.970;2023-06-14T08:08:49;101906.16;;;22.94;62.71
39823;BME280;25499;53.958;10.970;2023-06-14T08:11:15;101907.09;;;22.93;62.82
39823;BME280;25499;53.958;10.970;2023-06-14T08:13:42;101895.56;;;23.41;61.65
39823;BME280;25499;53.958;10.970;2023-06-14T08:16:10;101883.56;;;23.07;61.09
39823;BME280;25499;53.958;10.970;2023-06-14T08:18:37;101861.50;;;23.29;59.47
39823;BME280;25499;53.958;10.970;2023-06-14T08:21:04;101858.44;;;23.16;59.32
39823;BME280;25499;53.958;10.970;2023-06-14T08:23:31;101875.00;;;23.23;59.49
39823;BME280;25499;53.958;10.970;2023-06-14T08:25:58;101890.34;;;23.38;60.09
39823;BME280;25499;53.958;10.970;2023-06-14T08:28:26;101882.84;;;23.50;59.92
39823;BME280;25499;53.958;10.970;2023-06-14T08:30:53;101888.16;;;23.50;59.62
39823;BME280;25499;53.958;10.970;2023-06-14T08:33:22;101887.81;;;23.35;59.27
39823;BME280;25499;53.958;10.970;2023-06-14T08:35:48;101885.13;;;23.59;59.57
39823;BME280;25499;53.958;10.970;2023-06-14T08:38:15;101872.44;;;23.65;57.75
39823;BME280;25499;53.958;10.970;2023-06-14T08:40:42;101835.84;;;23.28;55.90
39823;BME280;25499;53.958;10.970;2023-06-14T08:43:11;101875.72;;;23.50;56.82
39823;BME280;25499;53.958;10.970;2023-06-14T08:45:38;101914.81;;;23.94;58.88
39823;BME280;25499;53.958;10.970;2023-06-14T08:48:06;101864.53;;;24.08;56.33
39823;BME280;25499;53.958;10.970;2023-06-14T08:50:36;101890.84;;;24.36;57.28
39823;BME280;25499;53.958;10.970;2023-06-14T08:53:08;101891.56;;;24.40;56.99
39823;BME280;25499;53.958;10.970;2023-06-14T08:55:36;101896.03;;;24.39;57.43
39823;BME280;25499;53.958;10.970;2023-06-14T08:58:05;101904.78;;;24.64;57.63
39823;BME280;25499;53.958;10.970;2023-06-14T09:00:35;101868.56;;;24.80;55.61
39823;BME280;25499;53.958;10.970;2023-06-14T09:03:04;101877.31;;;24.63;56.09
39823;BME280;25499;53.958;10.970;2023-06-14T09:05:39;101867.47;;;24.84;55.29
39823;BME280;25499;53.958;10.970;2023-06-14T09:08:06;101855.88;;;24.85;54.51
39823;BME280;25499;53.958;10.970;2023-06-14T09:10:33;101889.00;;;24.59;56.05
39823;BME280;25499;53.958;10.970;2023-06-14T09:13:02;101852.19;;;24.48;54.92
39823;BME280;25499;53.958;10.970;2023-06-14T09:15:30;101860.03;;;24.31;55.26
39823;BME280;25499;53.958;10.970;2023-06-14T09:17:57;101855.94;;;24.65;54.50
39823;BME280;25499;53.958;10.970;2023-06-14T09:20:25;101836.00;;;24.73;53.88
39823;BME280;25499;53.958;10.970;2023-06-14T09:22:53;101875.22;;;24.70;54.72
39823;BME280;25499;53.958;10.970;2023-06-14T09:25:20;101859.34;;;24.87;54.40
39823;BME280;25499;53.958;10.970;2023-06-14T09:27:48;101844.66;;;24.98;53.15
39823;BME280;25499;53.958;10.970;2023-06-14T09:30:15;101863.84;;;24.46;54.12
39823;BME280;25499;53.958;10.970;2023-06-14T09:32:41;101842.91;;;24.77;53.67
39823;BME280;25499;53.958;10.970;2023-06-14T09:35:09;101905.91;;;25.18;55.97
39823;BME280;25499;53.958;10.970;2023-06-14T09:37:36;101888.19;;;25.55;55.16
39823;BME280;25499;53.958;10.970;2023-06-14T09:40:06;101879.59;;;25.67;54.78
39823;BME280;25499;53.958;10.970;2023-06-14T09:42:34;101886.31;;;25.57;55.26
39823;BME280;25499;53.958;10.970;2023-06-14T09:45:02;101863.97;;;25.60;54.10
39823;BME280;25499;53.958;10.970;2023-06-14T09:47:29;101842.78;;;25.57;52.50
39823;BME280;25499;53.958;10.970;2023-06-14T09:49:56;101875.41;;;25.44;54.25
39823;BME280;25499;53.958;10.970;2023-06-14T09:52:22;101885.34;;;25.77;55.13
39823;BME280;25499;53.958;10.970;2023-06-14T09:54:52;101885.19;;;25.99;54.75
39823;BME280;25499;53.958;10.970;2023-06-14T09:57:23;101872.06;;;25.95;54.07
39823;BME280;25499;53.958;10.970;2023-06-14T09:59:53;101871.69;;;26.20;54.25
39823;BME280;25499;53.958;10.970;2023-06-14T10:02:25;101874.78;;;26.12;54.14
39823;BME280;25499;53.958;10.970;2023-06-14T10:04:57;101846.09;;;26.16;53.18
39823;BME280;25499;53.958;10.970;2023-06-14T10:07:27;101829.47;;;25.74;53.05
39823;BME280;25499;53.958;10.970;2023-06-14T10:09:57;101886.78;;;26.21;54.54
39823;BME280;25499;53.958;10.970;2023-06-14T10:12:25;101851.19;;;26.38;53.26
39823;BME280;25499;53.958;10.970;2023-06-14T10:14:53;101845.78;;;26.22;52.83
39823;BME280;25499;53.958;10.970;2023-06-14T10:17:26;101827.00;;;25.88;52.33
39823;BME280;25499;53.958;10.970;2023-06-14T10:19:57;101808.09;;;25.39;51.46
39823;BME280;25499;53.958;10.970;2023-06-14T10:22:30;101812.09;;;25.10;51.67
39823;BME280;25499;53.958;10.970;2023-06-14T10:24:59;101842.22;;;25.50;53.23
39823;BME280;25499;53.958;10.970;2023-06-14T10:27:28;101816.53;;;25.66;51.74
39823;BME280;25499;53.958;10.970;2023-06-14T10:30:04;101833.22;;;26.24;51.99
39823;BME280;25499;53.958;10.970;2023-06-14T10:32:32;101852.84;;;26.23;52.60
39823;BME280;25499;53.958;10.970;2023-06-14T10:35:00;101824.72;;;26.33;51.74
39823;BME280;25499;53.958;10.970;2023-06-14T10:37:27;101858.94;;;26.42;52.72
39823;BME280;25499;53.958;10.970;2023-06-14T10:39:54;101834.63;;;26.31;52.36
39823;BME280;25499;53.958;10.970;2023-06-14T10:42:21;101833.28;;;26.40;52.24
39823;BME280;25499;53.958;10.970;2023-06-14T10:44:53;101836.59;;;26.61;51.92
39823;BME280;25499;53.958;10.970;2023-06-14T10:47:28;101803.31;;;26.68;50.40
39823;BME280;25499;53.958;10.970;2023-06-14T10:49:56;101803.00;;;26.57;50.57
39823;BME280;25499;53.958;10.970;2023-06-14T10:52:26;101815.03;;;26.66;50.50
39823;BME280;25499;53.958;10.970;2023-06-14T10:55:05;101804.88;;;26.72;50.61
39823;BME280;25499;53.958;10.970;2023-06-14T10:57:35;101784.78;;;26.65;49.96
39823;BME280;25499;53.958;10.970;2023-06-14T11:00:05;101775.22;;;26.77;48.73
39823;BME280;25499;53.958;10.970;2023-06-14T11:03:08;101796.75;;;26.40;50.18
39823;BME280;25499;53.958;10.970;2023-06-14T11:05:50;101826.09;;;26.58;51.50
39823;BME280;25499;53.958;10.970;2023-06-14T11:11:23;101792.78;;;26.65;49.89
39823;BME280;25499;53.958;10.970;2023-06-14T11:13:55;101794.06;;;26.58;50.25
39823;BME280;25499;53.958;10.970;2023-06-14T11:16:25;101790.97;;;26.15;50.23
39823;BME280;25499;53.958;10.970;2023-06-14T11:18:52;101828.63;;;26.43;52.11
39823;BME280;25499;53.958;10.970;2023-06-14T11:21:19;101815.34;;;26.42;51.91
39823;BME280;25499;53.958;10.970;2023-06-14T11:23:49;101808.50;;;26.03;52.17
39823;BME280;25499;53.958;10.970;2023-06-14T11:26:24;101807.00;;;26.15;52.26
39823;BME280;25499;53.958;10.970;2023-06-14T11:28:55;101828.03;;;26.03;52.75
39823;BME280;25499;53.958;10.970;2023-06-14T11:31:23;101832.19;;;26.27;53.13
39823;BME280;25499;53.958;10.970;2023-06-14T11:33:50;101839.41;;;26.24;53.85
39823;BME280;25499;53.958;10.970;2023-06-14T11:36:17;101823.91;;;26.49;53.37
39823;BME280;25499;53.958;10.970;2023-06-14T11:38:44;101789.41;;;26.11;52.13
39823;BME280;25499;53.958;10.970;2023-06-14T11:41:10;101831.88;;;25.98;54.15
39823;BME280;25499;53.958;10.970;2023-06-14T11:43:37;101814.06;;;26.16;53.48
39823;BME280;25499;53.958;10.970;2023-06-14T11:46:04;101812.31;;;25.43;53.49
39823;BME280;25499;53.958;10.970;2023-06-14T11:48:40;101813.78;;;25.31;53.53
39823;BME280;25499;53.958;10.970;2023-06-14T11:51:07;101817.28;;;25.51;53.42
39823;BME280;25499;53.958;10.970;2023-06-14T11:53:34;101808.69;;;25.81;53.34
39823;BME280;25499;53.958;10.970;2023-06-14T11:56:01;101832.28;;;26.08;53.99
39823;BME280;25499;53.958;10.970;2023-06-14T11:58:29;101802.16;;;26.05;53.08
39823;BME280;25499;53.958;10.970;2023-06-14T12:00:55;101772.03;;;25.84;51.61
39823;BME280;25499;53.958;10.970;2023-06-14T12:03:23;101734.38;;;25.19;51.13
39823;BME280;25499;53.958;10.970;2023-06-14T12:06:01;101749.25;;;24.87;51.44
39823;BME280;25499;53.958;10.970;2023-06-14T12:08:32;101792.09;;;25.39;53.64
39823;BME280;25499;53.958;10.970;2023-06-14T12:11:04;101746.44;;;25.09;51.42
39823;BME280;25499;53.958;10.970;2023-06-14T12:13:30;101686.38;;;24.83;49.11
39823;BME280;25499;53.958;10.970;2023-06-14T12:15:57;101704.56;;;24.35;50.20
39823;BME280;25499;53.958;10.970;2023-06-14T12:18:32;101725.94;;;24.52;50.75
39823;BME280;25499;53.958;10.970;2023-06-14T12:21:01;101719.00;;;24.69;49.66
39823;BME280;25499;53.958;10.970;2023-06-14T12:23:43;101747.75;;;25.00;50.88
39823;BME280;25499;53.958;10.970;2023-06-14T12:26:12;101662.41;;;24.83;48.06
39823;BME280;25499;53.958;10.970;2023-06-14T12:28:40;101626.91;;;24.06;46.13
39823;BME280;25499;53.958;10.970;2023-06-14T12:31:06;101651.69;;;24.46;46.74
39823;BME280;25499;53.958;10.970;2023-06-14T12:33:33;101632.44;;;24.60;45.33
39823;BME280;25499;53.958;10.970;2023-06-14T12:36:04;101619.31;;;23.98;45.41
39823;BME280;25499;53.958;10.970;2023-06-14T12:38:32;101608.88;;;23.73;45.59
39823;BME280;25499;53.958;10.970;2023-06-14T12:40:59;101640.19;;;23.67;46.90
39823;BME280;25499;53.958;10.970;2023-06-14T12:43:26;101607.69;;;23.60;45.49
39823;BME280;25499;53.958;10.970;2023-06-14T12:45:53;101618.25;;;23.61;45.75
39823;BME280;25499;53.958;10.970;2023-06-14T12:48:19;101662.28;;;24.08;46.94
39823;BME280;25499;53.958;10.970;2023-06-14T12:50:48;101607.63;;;23.82;45.07
39823;BME280;25499;53.958;10.970;2023-06-14T12:53:16;101597.91;;;23.19;45.00
39823;BME280;25499;53.958;10.970;2023-06-14T12:55:43;101638.97;;;23.12;46.32
39823;BME280;25499;53.958;10.970;2023-06-14T12:58:09;101641.84;;;23.28;46.29
39823;BME280;25499;53.958;10.970;2023-06-14T13:00:37;101609.94;;;23.07;45.30
39823;BME280;25499;53.958;10.970;2023-06-14T13:03:04;101618.75;;;22.86;45.41
39823;BME280;25499;53.958;10.970;2023-06-14T13:05:31;101599.00;;;22.71;45.51
39823;BME280;25499;53.958;10.970;2023-06-14T13:07:58;101630.66;;;22.76;46.16
39823;BME280;25499;53.958;10.970;2023-06-14T13:10:26;101684.47;;;23.03;47.88
39823;BME280;25499;53.958;10.970;2023-06-14T13:12:53;101652.88;;;23.19;46.42
39823;BME280;25499;53.958;10.970;2023-06-14T13:15:20;101611.50;;;22.89;45.68
39823;BME280;25499;53.958;10.970;2023-06-14T13:17:47;101664.16;;;23.02;47.26
39823;BME280;25499;53.958;10.970;2023-06-14T13:20:14;101645.75;;;22.97;46.53
39823;BME280;25499;53.958;10.970;2023-06-14T13:22:41;101612.06;;;22.76;46.15
39823;BME280;25499;53.958;10.970;2023-06-14T13:25:08;101637.88;;;22.94;46.66
39823;BME280;25499;53.958;10.970;2023-06-14T13:27:36;101605.13;;;22.73;45.22
39823;BME280;25499;53.958;10.970;2023-06-14T13:30:04;101618.50;;;22.92;45.23
39823;BME280;25499;53.958;10.970;2023-06-14T13:32:32;101611.38;;;22.92;45.05
39823;BME280;25499;53.958;10.970;2023-06-14T13:34:59;101621.53;;;22.83;45.34
39823;BME280;25499;53.958;10.970;2023-06-14T13:37:25;101548.47;;;22.28;43.67
39823;BME280;25499;53.958;10.970;2023-06-14T13:39:52;101550.84;;;22.12;43.79
39823;BME280;25499;53.958;10.970;2023-06-14T13:42:19;101598.97;;;22.03;45.25
39823;BME280;25499;53.958;10.970;2023-06-14T13:44:47;101590.75;;;22.33;44.84
39823;BME280;25499;53.958;10.970;2023-06-14T13:47:13;101578.44;;;22.32;44.42
39823;BME280;25499;53.958;10.970;2023-06-14T13:49:41;101588.97;;;22.33;44.75
39823;BME280;25499;53.958;10.970;2023-06-14T13:52:08;101556.66;;;22.22;44.18
39823;BME280;25499;53.958;10.970;2023-06-14T13:54:34;101578.13;;;22.16;44.10
39823;BME280;25499;53.958;10.970;2023-06-14T13:57:02;101547.81;;;22.00;44.00
39823;BME280;25499;53.958;10.970;2023-06-14T13:59:28;101552.78;;;21.85;43.50
39823;BME280;25499;53.958;10.970;2023-06-14T14:01:57;101555.63;;;21.79;43.72
39823;BME280;25499;53.958;10.970;2023-06-14T14:04:24;101562.91;;;21.97;43.96
39823;BME280;25499;53.958;10.970;2023-06-14T14:06:51;101531.56;;;21.85;43.14
39823;BME280;25499;53.958;10.970;2023-06-14T14:09:18;101536.06;;;21.83;43.62
39823;BME280;25499;53.958;10.970;2023-06-14T14:11:44;101547.47;;;21.85;43.90
39823;BME280;25499;53.958;10.970;2023-06-14T14:14:11;101518.47;;;21.80;43.30
39823;BME280;25499;53.958;10.970;2023-06-14T14:16:38;101517.50;;;21.59;43.06
39823;BME280;25499;53.958;10.970;2023-06-14T14:19:06;101538.34;;;21.69;43.52
39823;BME280;25499;53.958;10.970;2023-06-14T14:21:33;101534.25;;;21.84;43.53
39823;BME280;25499;53.958;10.970;2023-06-14T14:24:00;101540.38;;;21.86;43.65
39823;BME280;25499;53.958;10.970;2023-06-14T14:26:27;101533.78;;;21.72;43.54
39823;BME280;25499;53.958;10.970;2023-06-14T14:28:54;101509.56;;;21.59;42.35
39823;BME280;25499;53.958;10.970;2023-06-14T14:31:21;101505.22;;;21.57;43.00
39823;BME280;25499;53.958;10.970;2023-06-14T14:33:48;101514.78;;;21.36;43.17
39823;BME280;25499;53.958;10.970;2023-06-14T14:36:16;101487.59;;;21.31;42.17
39823;BME280;25499;53.958;10.970;2023-06-14T14:38:43;101500.84;;;21.31;42.65
39823;BME280;25499;53.958;10.970;2023-06-14T14:41:09;101492.19;;;21.26;42.82
39823;BME280;25499;53.958;10.970;2023-06-14T14:43:36;101479.13;;;21.21;42.15
39823;BME280;25499;53.958;10.970;2023-06-14T14:46:04;101445.63;;;21.20;41.10
39823;BME280;25499;53.958;10.970;2023-06-14T14:48:31;101460.69;;;21.18;41.12
39823;BME280;25499;53.958;10.970;2023-06-14T14:50:57;101473.00;;;21.19;41.61
39823;BME280;25499;53.958;10.970;2023-06-14T14:53:26;101468.75;;;21.38;41.24
39823;BME280;25499;53.958;10.970;2023-06-14T14:55:52;101453.91;;;21.34;40.47
39823;BME280;25499;53.958;10.970;2023-06-14T14:58:19;101461.44;;;21.21;41.12
39823;BME280;25499;53.958;10.970;2023-06-14T15:00:47;101462.63;;;21.13;41.20
39823;BME280;25499;53.958;10.970;2023-06-14T15:03:13;101493.09;;;21.24;42.11
39823;BME280;25499;53.958;10.970;2023-06-14T15:05:40;101494.19;;;21.44;41.95
39823;BME280;25499;53.958;10.970;2023-06-14T15:08:07;101509.22;;;21.43;42.45
39823;BME280;25499;53.958;10.970;2023-06-14T15:10:38;101491.34;;;21.25;42.26
39823;BME280;25499;53.958;10.970;2023-06-14T15:13:07;101494.41;;;21.13;42.27
39823;BME280;25499;53.958;10.970;2023-06-14T15:15:34;101501.06;;;21.24;42.25
39823;BME280;25499;53.958;10.970;2023-06-14T15:18:01;101517.28;;;21.40;42.70
39823;BME280;25499;53.958;10.970;2023-06-14T15:20:29;101494.00;;;21.25;41.97
39823;BME280;25499;53.958;10.970;2023-06-14T15:22:56;101506.31;;;21.26;42.21
39823;BME280;25499;53.958;10.970;2023-06-14T15:25:25;101495.59;;;21.29;42.00
39823;BME280;25499;53.958;10.970;2023-06-14T15:27:53;101507.88;;;21.32;42.62
39823;BME280;25499;53.958;10.970;2023-06-14T15:30:20;101498.09;;;21.34;41.93
39823;BME280;25499;53.958;10.970;2023-06-14T15:32:47;101499.41;;;21.47;42.29
39823;BME280;25499;53.958;10.970;2023-06-14T15:35:16;101489.66;;;21.48;42.11
39823;BME280;25499;53.958;10.970;2023-06-14T15:37:44;101481.91;;;21.41;41.71
39823;BME280;25499;53.958;10.970;2023-06-14T15:40:11;101489.34;;;21.32;42.10
39823;BME280;25499;53.958;10.970;2023-06-14T15:42:38;101465.31;;;21.36;41.49
39823;BME280;25499;53.958;10.970;2023-06-14T15:45:07;101481.66;;;21.24;41.71
39823;BME280;25499;53.958;10.970;2023-06-14T15:47:34;101484.50;;;21.18;41.78
39823;BME280;25499;53.958;10.970;2023-06-14T15:50:00;101499.44;;;21.20;42.19
39823;BME280;25499;53.958;10.970;2023-06-14T15:52:30;101504.75;;;21.20;43.24
39823;BME280;25499;53.958;10.970;2023-06-14T15:54:57;101476.38;;;21.24;42.05
39823;BME280;25499;53.958;10.970;2023-06-14T15:57:24;101470.22;;;21.23;41.52
39823;BME280;25499;53.958;10.970;2023-06-14T15:59:51;101494.94;;;21.22;42.55
39823;BME280;25499;53.958;10.970;2023-06-14T16:02:19;101468.91;;;21.10;41.49
39823;BME280;25499;53.958;10.970;2023-06-14T16:04:46;101461.41;;;20.98;41.37
39823;BME280;25499;53.958;10.970;2023-06-14T16:07:13;101484.25;;;21.00;42.07
39823;BME280;25499;53.958;10.970;2023-06-14T16:09:40;101487.94;;;20.96;42.62
39823;BME280;25499;53.958;10.970;2023-06-14T16:12:08;101470.91;;;21.03;41.73
39823;BME280;25499;53.958;10.970;2023-06-14T16:14:35;101480.06;;;20.95;42.83
39823;BME280;25499;53.958;10.970;2023-06-14T16:17:02;101501.69;;;21.06;42.84
39823;BME280;25499;53.958;10.970;2023-06-14T16:19:31;101481.06;;;20.91;42.99
39823;BME280;25499;53.958;10.970;2023-06-14T16:21:58;101499.19;;;21.03;43.17
39823;BME280;25499;53.958;10.970;2023-06-14T16:24:25;101503.13;;;20.91;43.67
39823;BME280;25499;53.958;10.970;2023-06-14T16:26:52;101463.63;;;20.85;42.50
39823;BME280;25499;53.958;10.970;2023-06-14T16:29:19;101464.81;;;20.76;42.54
39823;BME280;25499;53.958;10.970;2023-06-14T16:31:46;101457.34;;;20.62;42.55
39823;BME280;25499;53.958;10.970;2023-06-14T16:34:13;101480.50;;;20.54;43.25
39823;BME280;25499;53.958;10.970;2023-06-14T16:36:42;101495.53;;;20.54;43.95
39823;BME280;25499;53.958;10.970;2023-06-14T16:39:09;101486.66;;;20.26;43.90
39823;BME280;25499;53.958;10.970;2023-06-14T16:41:36;101476.03;;;20.28;43.97
39823;BME280;25499;53.958;10.970;2023-06-14T16:44:03;101502.41;;;20.31;44.19
39823;BME280;25499;53.958;10.970;2023-06-14T16:46:30;101495.25;;;20.06;44.30
39823;BME280;25499;53.958;10.970;2023-06-14T16:48:59;101474.97;;;20.07;44.07
39823;BME280;25499;53.958;10.970;2023-06-14T16:51:27;101521.22;;;20.22;45.44
39823;BME280;25499;53.958;10.970;2023-06-14T16:53:55;101529.25;;;20.19;45.18
39823;BME280;25499;53.958;10.970;2023-06-14T16:56:22;101526.69;;;20.16;45.69
39823;BME280;25499;53.958;10.970;2023-06-14T16:58:52;101524.38;;;20.05;45.63
39823;BME280;25499;53.958;10.970;2023-06-14T17:01:19;101520.81;;;20.06;45.45
39823;BME280;25499;53.958;10.970;2023-06-14T17:03:45;101519.78;;;20.11;44.97
39823;BME280;25499;53.958;10.970;2023-06-14T17:06:12;101535.00;;;20.03;45.85
39823;BME280;25499;53.958;10.970;2023-06-14T17:08:39;101522.84;;;19.98;45.73
39823;BME280;25499;53.958;10.970;2023-06-14T17:11:08;101515.50;;;20.06;44.91
39823;BME280;25499;53.958;10.970;2023-06-14T17:13:35;101520.25;;;19.96;44.91
39823;BME280;25499;53.958;10.970;2023-06-14T17:16:02;101505.38;;;19.92;45.01
39823;BME280;25499;53.958;10.970;2023-06-14T17:18:30;101531.66;;;19.97;45.30
39823;BME280;25499;53.958;10.970;2023-06-14T17:21:00;101503.41;;;19.99;45.12
39823;BME280;25499;53.958;10.970;2023-06-14T17:23:27;101513.38;;;19.89;45.45
39823;BME280;25499;53.958;10.970;2023-06-14T17:25:54;101518.44;;;19.97;45.15
39823;BME280;25499;53.958;10.970;2023-06-14T17:28:22;101530.22;;;19.86;45.93
39823;BME280;25499;53.958;10.970;2023-06-14T17:30:49;101556.00;;;19.78;46.90
39823;BME280;25499;53.958;10.970;2023-06-14T17:33:16;101558.59;;;19.80;47.39
39823;BME280;25499;53.958;10.970;2023-06-14T17:35:43;101563.72;;;19.86;47.29
39823;BME280;25499;53.958;10.970;2023-06-14T17:38:10;101558.34;;;19.87;46.98
39823;BME280;25499;53.958;10.970;2023-06-14T17:40:37;101573.72;;;19.74;47.33
39823;BME280;25499;53.958;10.970;2023-06-14T17:43:05;101566.84;;;19.67;47.69
39823;BME280;25499;53.958;10.970;2023-06-14T17:45:33;101578.16;;;19.72;47.98
39823;BME280;25499;53.958;10.970;2023-06-14T17:48:00;101581.91;;;19.64;47.96
39823;BME280;25499;53.958;10.970;2023-06-14T17:50:27;101587.25;;;19.62;48.33
39823;BME280;25499;53.958;10.970;2023-06-14T17:52:53;101566.47;;;19.48;48.27
39823;BME280;25499;53.958;10.970;2023-06-14T17:55:21;101591.97;;;19.49;48.86
39823;BME280;25499;53.958;10.970;2023-06-14T17:57:48;101605.00;;;19.57;49.24
39823;BME280;25499;53.958;10.970;2023-06-14T18:00:16;101620.19;;;19.49;49.40
39823;BME280;25499;53.958;10.970;2023-06-14T18:02:44;101607.34;;;19.35;49.71
39823;BME280;25499;53.958;10.970;2023-06-14T18:05:11;101617.56;;;19.47;49.58
39823;BME280;25499;53.958;10.970;2023-06-14T18:07:37;101614.63;;;19.25;49.86
39823;BME280;25499;53.958;10.970;2023-06-14T18:10:06;101612.13;;;19.19;50.01
39823;BME280;25499;53.958;10.970;2023-06-14T18:12:33;101623.47;;;19.23;50.34
39823;BME280;25499;53.958;10.970;2023-06-14T18:14:59;101632.19;;;19.26;50.74
39823;BME280;25499;53.958;10.970;2023-06-14T18:17:27;101639.34;;;19.21;51.32
39823;BME280;25499;53.958;10.970;2023-06-14T18:19:55;101643.59;;;19.28;51.38
39823;BME280;25499;53.958;10.970;2023-06-14T18:22:21;101651.03;;;19.11;51.42
39823;BME280;25499;53.958;10.970;2023-06-14T18:24:48;101648.34;;;19.14;51.35
39823;BME280;25499;53.958;10.970;2023-06-14T18:27:15;101662.75;;;18.99;52.51